Time;durP1;ratioP1;P1;durP2;ratioP2;P2;SDS_P1;SDS_P2;PMS_P1;PMS_P2;Temp;Humidity;BMP_temperature;BMP_pressure;BME280_temperature;BME280_humidity;BME280_pressure;Samples;Min_cycle;Max_cycle;Signal;HPM_P1;HPM_P2
2022/09/30 00:04:51;;;;;;;5.15;3.30;;;16.10;66.40;;;;;;10367161;28;20038;-58
2022/09/30 00:09:51;;;;;;;4.20;2.92;;;16.10;66.50;;;;;;10364386;28;20453;-58
2022/09/30 00:14:52;;;;;;;5.18;3.17;;;16.10;66.40;;;;;;10364873;28;20076;-57
2022/09/30 00:19:53;;;;;;;4.03;2.50;;;16.10;66.50;;;;;;10380404;28;20421;-59
2022/09/30 00:24:54;;;;;;;3.90;2.80;;;16.10;66.50;;;;;;10363271;28;20044;-58
2022/09/30 00:29:55;;;;;;;3.70;3.33;;;16.10;66.60;;;;;;10365163;28;20064;-58
2022/09/30 00:34:55;;;;;;;4.63;2.80;;;16.10;66.50;;;;;;10364844;28;20019;-58
2022/09/30 00:39:57;;;;;;;4.18;2.70;;;16.10;66.60;;;;;;10363226;28;20058;-58
2022/09/30 00:45:12;;;;;;;3.38;2.75;;;16.10;66.40;;;;;;10363125;28;20077;-58
2022/09/30 00:50:31;;;;;;;4.15;3.33;;;16.10;66.60;;;;;;10364345;28;20049;-59
2022/09/30 00:55:56;;;;;;;3.40;2.53;;;16.00;66.50;;;;;;10363089;28;20026;-59
2022/09/30 01:01:00;;;;;;;4.35;2.80;;;16.00;66.40;;;;;;10357245;28;20752;-58
2022/09/30 01:06:02;;;;;;;3.30;2.42;;;16.00;66.50;;;;;;10361270;28;20124;-59
2022/09/30 01:11:03;;;;;;;4.78;2.60;;;16.00;66.50;;;;;;10360721;28;20490;-59
2022/09/30 01:16:38;;;;;;;4.65;2.63;;;16.00;66.40;;;;;;10360898;28;20405;-59
2022/09/30 01:22:09;;;;;;;4.35;2.92;;;16.00;66.40;;;;;;10362950;28;20026;-59
2022/09/30 01:28:11;;;;;;;4.13;2.30;;;16.00;66.50;;;;;;10381254;28;20034;-57
2022/09/30 01:33:31;;;;;;;3.67;2.50;;;16.00;66.50;;;;;;10341182;28;20444;-59
2022/09/30 01:39:31;;;;;;;3.42;2.38;;;16.00;66.30;;;;;;10362112;28;20132;-59
2022/09/30 01:44:48;;;;;;;3.55;2.58;;;16.00;66.40;;;;;;10355908;28;20057;-58
2022/09/30 01:49:53;;;;;;;3.60;2.28;;;16.00;66.50;;;;;;10359804;28;20440;-59
2022/09/30 01:55:23;;;;;;;3.28;2.58;;;16.00;65.30;;;;;;10360273;28;20049;-58
2022/09/30 02:00:25;;;;;;;3.08;2.28;;;16.00;64.90;;;;;;10367615;28;20026;-58
2022/09/30 02:05:43;;;;;;;3.28;2.42;;;16.00;65.70;;;;;;10370380;28;20570;-58
2022/09/30 02:10:50;;;;;;;3.30;2.05;;;15.90;65.70;;;;;;10359826;28;20377;-59
2022/09/30 02:15:57;;;;;;;3.22;2.15;;;15.90;66.40;;;;;;10359379;28;20576;-58
2022/09/30 02:21:02;;;;;;;4.25;2.72;;;15.90;65.80;;;;;;10359733;28;20349;-59
2022/09/30 02:26:18;;;;;;;2.78;1.98;;;15.90;65.90;;;;;;10358998;28;20057;-58
2022/09/30 02:31:22;;;;;;;3.17;2.40;;;15.90;65.90;;;;;;10359087;28;20077;-58
2022/09/30 02:36:33;;;;;;;3.67;2.40;;;15.90;66.00;;;;;;10359211;28;20290;-59
2022/09/30 02:41:44;;;;;;;3.35;2.35;;;15.90;65.90;;;;;;10359622;28;20050;-59
2022/09/30 02:46:56;;;;;;;4.00;2.10;;;15.90;65.90;;;;;;10358952;28;20056;-59
2022/09/30 02:52:26;;;;;;;3.67;2.72;;;15.90;66.00;;;;;;10371682;28;20447;-58
2022/09/30 02:57:56;;;;;;;3.92;2.03;;;15.90;66.00;;;;;;10366121;28;20066;-58
2022/09/30 03:03:20;;;;;;;2.88;2.17;;;15.90;66.00;;;;;;10358981;28;20250;-58
2022/09/30 03:08:20;;;;;;;2.65;2.08;;;15.90;66.00;;;;;;10358842;28;20064;-59
2022/09/30 03:13:53;;;;;;;3.50;3.00;;;15.80;66.00;;;;;;10358081;28;20029;-58
2022/09/30 03:19:39;;;;;;;3.28;2.17;;;15.80;66.00;;;;;;10369209;28;20302;-59
2022/09/30 03:25:15;;;;;;;3.20;1.92;;;15.80;66.00;;;;;;10347504;28;20041;-59
2022/09/30 03:30:25;;;;;;;3.72;2.30;;;15.80;66.00;;;;;;10359924;28;20084;-58
2022/09/30 03:35:53;;;;;;;4.68;2.28;;;15.80;66.10;;;;;;10362939;28;20026;-59
2022/09/30 03:41:26;;;;;;;3.15;2.13;;;15.80;65.90;;;;;;10365754;28;20046;-58
2022/09/30 03:46:43;;;;;;;3.38;2.15;;;15.80;65.90;;;;;;10366090;28;20065;-59
2022/09/30 03:51:44;;;;;;;3.72;2.15;;;15.80;65.90;;;;;;10379127;28;20474;-59
2022/09/30 03:56:45;;;;;;;4.18;2.33;;;15.80;65.80;;;;;;10378953;28;20425;-58
2022/09/30 04:01:46;;;;;;;3.55;2.55;;;15.80;66.00;;;;;;10365680;28;20109;-59
2022/09/30 04:06:46;;;;;;;2.75;2.00;;;15.80;65.90;;;;;;10364232;28;20430;-58
2022/09/30 04:11:47;;;;;;;3.58;2.50;;;15.80;65.90;;;;;;10363661;28;20026;-58
2022/09/30 04:16:48;;;;;;;2.83;2.28;;;15.80;65.90;;;;;;10362720;28;20531;-59
2022/09/30 04:21:51;;;;;;;5.43;2.50;;;15.70;65.80;;;;;;10365837;28;20096;-58
2022/09/30 04:26:52;;;;;;;3.95;2.13;;;15.80;65.90;;;;;;10360304;28;20144;-58
2022/09/30 04:31:53;;;;;;;3.15;2.17;;;15.80;65.70;;;;;;10356971;28;20568;-58
2022/09/30 04:36:54;;;;;;;3.45;2.72;;;15.80;64.30;;;;;;10365989;28;20017;-57
2022/09/30 04:41:55;;;;;;;3.05;2.03;;;15.70;64.50;;;;;;10365217;28;20108;-57
2022/09/30 04:46:56;;;;;;;3.50;2.05;;;15.70;65.00;;;;;;10366138;28;20101;-58
2022/09/30 04:51:56;;;;;;;3.70;2.22;;;15.70;65.00;;;;;;10367455;28;20045;-58
2022/09/30 04:56:57;;;;;;;5.25;2.90;;;15.70;65.20;;;;;;10371658;28;20489;-57
2022/09/30 05:01:58;;;;;;;4.07;2.72;;;15.70;65.30;;;;;;10365901;28;20402;-58
2022/09/30 05:07:00;;;;;;;4.18;2.20;;;15.80;65.40;;;;;;10364964;28;20034;-57
2022/09/30 05:12:02;;;;;;;3.72;2.92;;;15.90;65.30;;;;;;10347526;28;20025;-57
2022/09/30 05:17:03;;;;;;;6.07;2.92;;;15.90;65.40;;;;;;10367091;28;20030;-58
2022/09/30 05:22:03;;;;;;;6.00;2.55;;;15.80;65.60;;;;;;10364964;28;20417;-57
2022/09/30 05:27:04;;;;;;;13.38;3.15;;;15.80;66.10;;;;;;10376440;28;20061;-56
2022/09/30 05:32:06;;;;;;;5.43;2.50;;;15.80;66.40;;;;;;10380230;28;20021;-60
2022/09/30 05:37:10;;;;;;;8.27;2.47;;;15.80;66.50;;;;;;10360567;28;20047;-61
2022/09/30 05:42:11;;;;;;;9.77;3.15;;;15.90;67.00;;;;;;10362507;28;20054;-61
2022/09/30 05:47:12;;;;;;;13.95;3.22;;;15.90;67.00;;;;;;10377476;28;20073;-62
2022/09/30 05:52:13;;;;;;;24.70;4.32;;;15.90;67.20;;;;;;10365332;28;20511;-62
2022/09/30 05:57:14;;;;;;;27.48;5.72;;;15.80;67.30;;;;;;10371228;28;20369;-63
2022/09/30 06:02:15;;;;;;;30.25;5.13;;;15.80;67.50;;;;;;10368588;28;20050;-63
2022/09/30 06:07:16;;;;;;;20.73;4.50;;;15.80;67.60;;;;;;10376743;28;20481;-67
2022/09/30 06:12:17;;;;;;;33.88;6.63;;;15.90;68.00;;;;;;10364023;28;20026;-63
2022/09/30 06:17:18;;;;;;;20.00;5.68;;;15.80;68.20;;;;;;10376503;28;20026;-59
2022/09/30 06:22:19;;;;;;;54.53;8.18;;;15.80;68.20;;;;;;10362298;28;20045;-59
2022/09/30 06:27:20;;;;;;;16.70;4.93;;;15.80;68.00;;;;;;10376264;28;20099;-59
2022/09/30 06:32:21;;;;;;;14.20;4.68;;;15.70;68.00;;;;;;10392835;28;20018;-61
2022/09/30 06:37:23;;;;;;;24.92;4.93;;;15.70;67.90;;;;;;10360795;28;20065;-60
2022/09/30 06:42:23;;;;;;;23.58;5.72;;;15.70;68.50;;;;;;10362239;28;20081;-59
2022/09/30 06:47:24;;;;;;;25.17;5.18;;;15.70;68.70;;;;;;10363576;28;20116;-58
2022/09/30 06:52:26;;;;;;;20.33;5.28;;;15.70;68.70;;;;;;10367664;28;20089;-60
2022/09/30 06:57:27;;;;;;;18.15;4.93;;;15.70;68.60;;;;;;10363200;28;20052;-59
2022/09/30 07:02:28;;;;;;;16.95;5.03;;;15.70;68.40;;;;;;10358652;28;20032;-60
2022/09/30 07:07:30;;;;;;;15.20;5.22;;;15.70;68.70;;;;;;10358667;28;20033;-60
2022/09/30 07:12:31;;;;;;;14.55;4.85;;;15.60;68.50;;;;;;10382327;28;20025;-61
2022/09/30 07:17:32;;;;;;;14.73;4.72;;;15.60;68.50;;;;;;10384964;28;20036;-61
2022/09/30 07:22:33;;;;;;;13.75;4.28;;;15.60;68.30;;;;;;10366197;28;20026;-61
2022/09/30 07:27:34;;;;;;;11.73;4.30;;;15.60;68.30;;;;;;10367829;28;20034;-60
2022/09/30 07:32:34;;;;;;;15.02;4.07;;;15.60;68.30;;;;;;10368310;28;20093;-64
2022/09/30 07:37:35;;;;;;;13.07;5.30;;;15.60;68.30;;;;;;10367235;28;20034;-61
2022/09/30 07:42:44;;;;;;;13.77;4.47;;;15.70;68.70;;;;;;10367167;28;20049;-61
2022/09/30 07:47:45;;;;;;;17.88;4.53;;;15.70;68.70;;;;;;10385709;28;20034;-60
2022/09/30 07:52:45;;;;;;;10.85;4.78;;;15.60;69.10;;;;;;10367760;28;20114;-63
2022/09/30 07:57:47;;;;;;;12.90;3.63;;;15.60;68.50;;;;;;10371022;28;20501;-63
2022/09/30 08:02:47;;;;;;;14.60;4.72;;;15.60;68.50;;;;;;10366279;28;20026;-61
2022/09/30 08:07:48;;;;;;;10.57;4.47;;;15.60;68.50;;;;;;10366887;28;20042;-64
2022/09/30 08:12:49;;;;;;;13.10;4.30;;;15.60;68.60;;;;;;10370040;28;20101;-62
2022/09/30 08:17:49;;;;;;;10.15;3.95;;;15.70;68.90;;;;;;10373094;28;20108;-61
2022/09/30 08:22:57;;;;;;;19.40;5.75;;;15.70;68.70;;;;;;10365208;28;20072;-60
2022/09/30 08:27:57;;;;;;;18.15;5.03;;;15.70;68.90;;;;;;10366284;28;20037;-58
2022/09/30 08:32:58;;;;;;;14.10;4.97;;;15.80;68.80;;;;;;10365964;28;20529;-58
2022/09/30 08:37:59;;;;;;;16.15;6.60;;;15.80;68.80;;;;;;10350360;28;20081;-59
2022/09/30 08:43:20;;;;;;;19.92;6.00;;;15.80;69.00;;;;;;10368402;28;20108;-58
2022/09/30 08:48:23;;;;;;;14.40;5.43;;;15.90;69.20;;;;;;10365451;28;20405;-60
2022/09/30 08:53:35;;;;;;;12.60;5.40;;;15.90;69.00;;;;;;10365406;28;20058;-61
2022/09/30 08:58:42;;;;;;;14.25;5.55;;;15.90;69.00;;;;;;10364637;28;20400;-62
2022/09/30 09:03:44;;;;;;;17.10;5.78;;;15.90;69.20;;;;;;10350450;28;20025;-59
2022/09/30 09:09:01;;;;;;;12.35;6.10;;;16.00;69.60;;;;;;10372539;28;20029;-60
2022/09/30 09:14:19;;;;;;;14.98;5.80;;;16.00;69.60;;;;;;10362522;28;20685;-61
2022/09/30 09:19:29;;;;;;;17.58;6.47;;;16.00;69.50;;;;;;10380149;28;20057;-61
2022/09/30 09:24:43;;;;;;;13.23;6.57;;;16.00;69.50;;;;;;10378448;28;20022;-61
2022/09/30 09:30:24;;;;;;;19.17;6.30;;;16.00;69.40;;;;;;10355249;28;20029;-60
2022/09/30 09:35:47;;;;;;;15.07;6.75;;;16.10;69.20;;;;;;10234443;28;20644;-58
2022/09/30 09:41:25;;;;;;;13.30;6.95;;;16.10;69.30;;;;;;10365860;28;20120;-60
2022/09/30 09:46:42;;;;;;;14.70;6.78;;;16.10;69.20;;;;;;10376582;28;20378;-60
2022/09/30 09:52:04;;;;;;;13.30;6.45;;;16.20;69.30;;;;;;10359047;28;20018;-60
2022/09/30 09:57:10;;;;;;;10.20;6.80;;;16.20;69.30;;;;;;10382287;28;20026;-60
2022/09/30 10:02:30;;;;;;;11.80;7.47;;;16.20;69.20;;;;;;10380621;28;20484;-61
2022/09/30 10:07:32;;;;;;;;;;;16.30;69.10;;;;;;10362112;28;20042;-60
2022/09/30 10:12:33;;;;;;;17.35;14.00;;;16.30;69.10;;;;;;10362056;28;20634;-60
2022/09/30 10:17:36;;;;;;;19.33;16.20;;;16.30;69.20;;;;;;10344835;28;20071;-61
2022/09/30 10:22:37;;;;;;;19.77;16.67;;;16.30;69.20;;;;;;10360849;28;20113;-60
2022/09/30 10:27:47;;;;;;;21.60;19.42;;;16.40;69.20;;;;;;10360598;28;20030;-61
2022/09/30 10:32:48;;;;;;;22.58;20.55;;;16.40;69.10;;;;;;10360412;28;20114;-61
2022/09/30 10:37:53;;;;;;;23.85;21.45;;;16.40;69.10;;;;;;10360526;28;20022;-60
2022/09/30 10:42:55;;;;;;;25.98;23.30;;;16.50;69.20;;;;;;10343002;28;20030;-60
2022/09/30 10:47:57;;;;;;;26.95;24.45;;;16.40;69.10;;;;;;10361525;28;20026;-60
2022/09/30 10:53:10;;;;;;;27.42;24.83;;;16.50;69.20;;;;;;10360464;28;20141;-60
2022/09/30 10:58:28;;;;;;;29.30;26.70;;;16.50;69.20;;;;;;10380418;28;20068;-60
2022/09/30 11:03:47;;;;;;;28.30;25.70;;;16.60;69.20;;;;;;10360630;28;20029;-60
2022/09/30 11:09:08;;;;;;;30.10;27.25;;;16.60;69.20;;;;;;10368844;28;20030;-61
2022/09/30 11:14:28;;;;;;;30.33;27.17;;;16.50;69.20;;;;;;10361055;28;20806;-61
2022/09/30 11:19:59;;;;;;;28.67;26.17;;;16.60;69.30;;;;;;10359690;28;20103;-61
2022/09/30 11:25:00;;;;;;;28.88;26.33;;;16.60;69.30;;;;;;10359987;28;20117;-62
2022/09/30 11:30:16;;;;;;;27.95;25.23;;;16.60;69.40;;;;;;10360452;28;20501;-61
2022/09/30 11:35:28;;;;;;;27.63;25.00;;;16.60;69.60;;;;;;10371426;28;20100;-63
2022/09/30 11:40:45;;;;;;;33.55;25.88;;;16.60;69.60;;;;;;10374022;28;20042;-61
2022/09/30 11:46:19;;;;;;;32.63;25.95;;;16.70;69.80;;;;;;10360679;28;20087;-61
2022/09/30 11:51:42;;;;;;;30.17;23.55;;;16.70;69.80;;;;;;10361924;28;20026;-61
2022/09/30 11:57:06;;;;;;;25.27;22.77;;;16.70;69.60;;;;;;10371609;28;20101;-61
2022/09/30 12:02:39;;;;;;;28.45;22.10;;;16.70;69.50;;;;;;10380484;28;20103;-61
2022/09/30 12:08:09;;;;;;;24.08;20.60;;;16.70;69.70;;;;;;10393389;28;20563;-61
2022/09/30 12:13:37;;;;;;;30.65;20.48;;;16.70;69.80;;;;;;10360048;28;20037;-61
2022/09/30 12:18:47;;;;;;;28.67;18.63;;;16.70;69.80;;;;;;10375947;28;20083;-61
2022/09/30 12:24:02;;;;;;;21.02;16.75;;;16.80;69.80;;;;;;10368608;28;20059;-61
2022/09/30 12:35:27;;;;;;;28.63;16.98;;;16.70;69.60;;;;;;10374858;28;20030;-61
2022/09/30 12:41:10;;;;;;;18.98;14.27;;;16.70;69.50;;;;;;10366620;28;20045;-61
2022/09/30 12:46:29;;;;;;;19.38;14.10;;;16.70;69.60;;;;;;10363482;28;20026;-61
2022/09/30 12:51:40;;;;;;;25.45;14.02;;;16.60;69.80;;;;;;10365931;28;20026;-61
2022/09/30 12:56:43;;;;;;;16.85;12.95;;;16.60;69.80;;;;;;10372840;28;20151;-61
2022/09/30 13:01:44;;;;;;;16.05;12.80;;;16.60;69.80;;;;;;10364920;28;20114;-60
2022/09/30 13:06:45;;;;;;;17.80;12.10;;;16.60;69.80;;;;;;10368858;28;20033;-61
2022/09/30 13:12:11;;;;;;;13.68;11.52;;;16.60;69.90;;;;;;10364586;28;20113;-61
2022/09/30 13:17:14;;;;;;;15.05;11.05;;;16.60;69.90;;;;;;10389831;28;20029;-62
2022/09/30 13:22:18;;;;;;;11.65;10.32;;;16.60;69.80;;;;;;10383863;28;20025;-61
2022/09/30 13:27:45;;;;;;;12.70;9.82;;;16.60;69.80;;;;;;10370047;28;20034;-61
2022/09/30 13:32:56;;;;;;;10.82;9.40;;;16.60;69.90;;;;;;10354571;28;20014;-61
2022/09/30 13:38:14;;;;;;;10.57;9.48;;;16.60;69.80;;;;;;10363112;28;20038;-61
2022/09/30 13:44:02;;;;;;;12.52;8.45;;;16.60;69.80;;;;;;10384191;28;20524;-61
2022/09/30 13:49:15;;;;;;;9.50;8.50;;;16.60;69.90;;;;;;10353273;28;20033;-60
2022/09/30 13:54:39;;;;;;;11.90;7.93;;;16.60;70.00;;;;;;10362893;28;20022;-61
2022/09/30 14:00:06;;;;;;;10.13;7.15;;;16.50;69.90;;;;;;10368419;28;20061;-61
2022/09/30 14:05:40;;;;;;;9.02;7.90;;;16.50;69.90;;;;;;10362085;28;20037;-61
2022/09/30 14:11:19;;;;;;;8.73;6.70;;;16.50;70.00;;;;;;10363047;28;20026;-61
2022/09/30 14:16:54;;;;;;;8.48;6.28;;;16.50;70.10;;;;;;10361100;28;20326;-61
2022/09/30 14:22:01;;;;;;;9.70;7.43;;;16.50;70.10;;;;;;10377752;28;20029;-61
2022/09/30 14:27:46;;;;;;;6.70;6.03;;;16.40;70.10;;;;;;10361047;28;20033;-61
2022/09/30 14:33:16;;;;;;;6.40;5.35;;;16.40;70.10;;;;;;10357422;28;20034;-62
2022/09/30 14:38:28;;;;;;;8.65;5.65;;;16.40;70.10;;;;;;10371361;28;20057;-61
2022/09/30 14:43:34;;;;;;;6.90;5.68;;;16.40;70.20;;;;;;10362976;28;20018;-61
2022/09/30 14:48:38;;;;;;;5.28;4.78;;;16.40;70.20;;;;;;10375040;28;20026;-61
2022/09/30 14:54:01;;;;;;;7.80;4.38;;;16.40;76.00;;;;;;10360521;28;20110;-61
2022/09/30 14:59:27;;;;;;;9.43;6.10;;;16.50;75.10;;;;;;10367274;28;20030;-62
2022/09/30 15:04:38;;;;;;;4.43;3.90;;;16.60;74.20;;;;;;10371856;28;20034;-61
2022/09/30 15:09:43;;;;;;;6.22;3.85;;;16.60;73.90;;;;;;10361358;28;20034;-61
2022/09/30 15:14:58;;;;;;;7.97;4.40;;;16.50;73.70;;;;;;10360692;28;20022;-61
2022/09/30 15:19:59;;;;;;;6.03;3.63;;;16.50;73.60;;;;;;10361980;28;20034;-61
2022/09/30 15:25:00;;;;;;;6.60;4.35;;;16.50;72.00;;;;;;10361831;28;20527;-61
2022/09/30 15:30:25;;;;;;;4.90;3.53;;;16.40;71.50;;;;;;10379973;28;20029;-61
2022/09/30 15:35:27;;;;;;;4.90;3.35;;;16.40;71.60;;;;;;10382273;28;20113;-61
2022/09/30 15:40:45;;;;;;;5.55;3.92;;;16.40;71.70;;;;;;10381470;28;20134;-61
2022/09/30 15:45:47;;;;;;;4.47;2.95;;;16.40;71.70;;;;;;10367934;28;20038;-61
2022/09/30 15:50:58;;;;;;;4.18;3.40;;;16.40;71.70;;;;;;10368952;28;20022;-61
2022/09/30 15:56:14;;;;;;;6.45;4.00;;;16.40;71.70;;;;;;10383001;28;20420;-61
2022/09/30 16:01:35;;;;;;;3.55;3.10;;;16.30;71.70;;;;;;10380633;28;20101;-61
2022/09/30 16:07:08;;;;;;;3.95;2.63;;;16.30;71.60;;;;;;10362383;28;20111;-61
2022/09/30 16:12:11;;;;;;;5.38;3.72;;;16.30;71.60;;;;;;10380883;28;20171;-61
2022/09/30 16:17:27;;;;;;;3.85;3.45;;;16.40;71.70;;;;;;10383619;28;20021;-61
2022/09/30 16:22:39;;;;;;;5.13;3.38;;;16.30;71.60;;;;;;10392780;28;20036;-61
2022/09/30 16:27:40;;;;;;;3.28;2.45;;;16.30;71.70;;;;;;10359160;28;20036;-61
2022/09/30 16:32:45;;;;;;;3.42;2.63;;;16.30;71.70;;;;;;10376515;28;20020;-61
2022/09/30 16:37:47;;;;;;;3.97;2.28;;;16.30;71.60;;;;;;10365847;28;20104;-61
2022/09/30 16:42:48;;;;;;;3.08;2.40;;;16.30;71.70;;;;;;10375977;28;20048;-61
2022/09/30 16:47:49;;;;;;;3.22;2.13;;;16.30;71.70;;;;;;10359441;28;20137;-60
2022/09/30 16:52:50;;;;;;;2.88;2.20;;;16.20;71.60;;;;;;10366737;28;20018;-62
2022/09/30 16:57:56;;;;;;;4.53;2.80;;;16.20;71.60;;;;;;10373588;28;20507;-61
2022/09/30 17:02:57;;;;;;;1.98;1.77;;;16.30;71.70;;;;;;10378088;28;20504;-61
2022/09/30 17:07:59;;;;;;;2.28;1.77;;;16.20;71.60;;;;;;10365442;28;20445;-61
2022/09/30 17:13:00;;;;;;;3.88;2.10;;;16.20;71.60;;;;;;10359839;28;20458;-60
2022/09/30 17:18:06;;;;;;;2.65;1.92;;;16.20;71.60;;;;;;10366494;28;20053;-61
2022/09/30 17:23:06;;;;;;;2.80;2.17;;;16.20;71.60;;;;;;10374450;28;20077;-61
2022/09/30 17:28:10;;;;;;;2.85;2.05;;;16.20;71.50;;;;;;10370049;28;20033;-61
2022/09/30 17:33:11;;;;;;;2.35;1.75;;;16.20;71.50;;;;;;10371072;28;20508;-62
2022/09/30 17:38:12;;;;;;;2.00;1.70;;;16.20;71.50;;;;;;10363594;28;20061;-61
2022/09/30 17:43:13;;;;;;;2.47;1.70;;;16.20;71.40;;;;;;10363687;28;20029;-61
2022/09/30 17:48:16;;;;;;;2.78;1.67;;;16.20;71.40;;;;;;10373186;28;20025;-61
2022/09/30 17:53:18;;;;;;;2.05;1.83;;;16.20;71.40;;;;;;10375731;28;20045;-61
2022/09/30 17:58:19;;;;;;;2.67;1.75;;;16.20;71.40;;;;;;10368359;28;20041;-61
2022/09/30 18:03:20;;;;;;;2.08;1.52;;;16.20;71.40;;;;;;10362017;28;20026;-61
2022/09/30 18:08:21;;;;;;;1.85;1.15;;;16.20;71.40;;;;;;10360839;28;20489;-61
2022/09/30 18:13:23;;;;;;;2.55;1.63;;;16.20;71.40;;;;;;10360148;28;20061;-61
2022/09/30 18:18:23;;;;;;;4.65;1.73;;;16.20;71.30;;;;;;10361232;28;20072;-61
2022/09/30 18:23:24;;;;;;;1.88;1.60;;;16.20;71.30;;;;;;10359993;28;20050;-61
2022/09/30 18:28:25;;;;;;;2.30;1.83;;;16.20;71.30;;;;;;10372717;28;20105;-61
2022/09/30 18:33:25;;;;;;;1.80;1.27;;;16.20;71.30;;;;;;10375882;28;20381;-61
2022/09/30 18:38:27;;;;;;;1.35;1.20;;;16.20;71.30;;;;;;10360491;28;20593;-61
2022/09/30 18:43:27;;;;;;;2.83;1.42;;;16.20;71.20;;;;;;10361340;28;20040;-61
2022/09/30 18:48:29;;;;;;;1.95;1.40;;;16.20;71.20;;;;;;10359390;28;20044;-61
2022/09/30 18:53:31;;;;;;;1.60;1.30;;;16.20;71.20;;;;;;10360074;28;20068;-62
2022/09/30 18:58:31;;;;;;;1.70;1.33;;;16.20;71.10;;;;;;10367939;28;20405;-61
2022/09/30 19:03:32;;;;;;;1.52;1.25;;;16.20;71.10;;;;;;10361202;28;20108;-61
2022/09/30 19:08:33;;;;;;;1.88;1.30;;;16.20;71.10;;;;;;10367790;28;20033;-61
2022/09/30 19:13:34;;;;;;;1.52;1.15;;;16.20;71.10;;;;;;10367412;28;20493;-61
2022/09/30 19:18:35;;;;;;;1.42;1.05;;;16.20;71.10;;;;;;10369296;28;20432;-62
2022/09/30 19:23:40;;;;;;;2.85;1.40;;;16.20;71.10;;;;;;10368078;28;20384;-61
2022/09/30 19:28:41;;;;;;;1.92;1.30;;;16.20;71.00;;;;;;10366087;28;20070;-61
2022/09/30 19:33:45;;;;;;;2.15;1.45;;;16.20;71.00;;;;;;10366989;28;20018;-61
2022/09/30 19:38:46;;;;;;;2.08;1.40;;;16.20;71.00;;;;;;10366757;28;20053;-61
2022/09/30 19:43:49;;;;;;;2.17;1.33;;;16.20;71.00;;;;;;10366684;28;20025;-62
2022/09/30 19:48:50;;;;;;;1.35;0.95;;;16.20;70.90;;;;;;10366636;28;20488;-61
2022/09/30 19:53:50;;;;;;;1.88;1.25;;;16.20;70.90;;;;;;10367406;28;20018;-61
2022/09/30 19:58:57;;;;;;;1.20;1.02;;;16.20;70.90;;;;;;10372342;28;20018;-61
2022/09/30 20:03:59;;;;;;;1.70;1.13;;;16.20;70.90;;;;;;10365288;28;20013;-61
2022/09/30 20:09:02;;;;;;;1.67;1.13;;;16.20;70.80;;;;;;10365297;28;20045;-61
2022/09/30 20:19:25;;;;;;;2.30;1.15;;;16.20;70.70;;;;;;10365896;28;20745;-61
2022/09/30 20:24:25;;;;;;;1.83;1.02;;;16.20;70.70;;;;;;10378933;28;20109;-61
2022/09/30 20:29:26;;;;;;;1.75;0.82;;;16.20;70.70;;;;;;10364227;28;20471;-61
2022/09/30 20:34:27;;;;;;;1.73;1.00;;;16.20;70.70;;;;;;10348157;28;20159;-61
2022/09/30 20:39:28;;;;;;;2.42;1.08;;;16.10;70.60;;;;;;10370917;28;20091;-61
2022/09/30 20:44:28;;;;;;;1.15;0.90;;;16.20;70.60;;;;;;10370514;28;20053;-61
2022/09/30 20:49:29;;;;;;;1.13;0.85;;;16.10;70.50;;;;;;10365034;28;20489;-61
2022/09/30 20:54:31;;;;;;;1.17;0.90;;;16.10;70.50;;;;;;10364926;28;20061;-61
2022/09/30 20:59:32;;;;;;;2.17;1.15;;;16.20;70.60;;;;;;10370474;28;20056;-61
2022/09/30 21:04:32;;;;;;;1.58;1.00;;;16.10;70.50;;;;;;10363831;28;20026;-61
2022/09/30 21:09:35;;;;;;;1.52;0.95;;;16.10;70.50;;;;;;10364243;28;20129;-61
2022/09/30 21:14:37;;;;;;;1.33;1.02;;;16.10;70.50;;;;;;10347876;28;20700;-61
2022/09/30 21:19:38;;;;;;;2.35;1.48;;;16.20;70.50;;;;;;10362971;28;20022;-61
2022/09/30 21:24:39;;;;;;;1.17;0.80;;;16.10;70.40;;;;;;10363218;28;20125;-61
2022/09/30 21:29:40;;;;;;;3.75;0.90;;;16.10;70.40;;;;;;10362987;28;20062;-61
2022/09/30 21:34:40;;;;;;;3.53;0.90;;;16.20;70.40;;;;;;10364153;28;20049;-61
2022/09/30 21:39:42;;;;;;;1.08;0.75;;;16.10;70.30;;;;;;10375248;28;20133;-61
2022/09/30 21:44:42;;;;;;;1.23;0.90;;;16.10;70.30;;;;;;10361832;28;20061;-61
2022/09/30 21:49:43;;;;;;;1.33;0.80;;;16.20;70.30;;;;;;10345014;28;20874;-61
2022/09/30 21:54:44;;;;;;;1.98;1.10;;;16.20;70.30;;;;;;10372997;28;20029;-61
2022/09/30 21:59:45;;;;;;;1.85;0.90;;;16.20;70.30;;;;;;10371380;28;20122;-61
2022/09/30 22:04:45;;;;;;;1.75;0.90;;;16.20;70.30;;;;;;10360851;28;20060;-61
2022/09/30 22:09:46;;;;;;;1.35;0.70;;;16.20;70.30;;;;;;10368128;28;20232;-61
2022/09/30 22:14:46;;;;;;;1.55;0.88;;;16.10;70.20;;;;;;10359688;28;20456;-61
2022/09/30 22:19:47;;;;;;;2.03;0.98;;;16.20;70.20;;;;;;10364820;28;20052;-61
2022/09/30 22:24:48;;;;;;;3.58;1.45;;;16.20;70.20;;;;;;10386519;28;20071;-61
2022/09/30 22:29:49;;;;;;;1.15;0.80;;;16.20;70.20;;;;;;10360551;28;20069;-61
2022/09/30 22:40:08;;;;;;;1.30;0.80;;;16.20;70.10;;;;;;10365941;28;20049;-60
2022/09/30 22:45:09;;;;;;;2.22;1.38;;;16.10;70.10;;;;;;10361716;28;20034;-61
2022/09/30 22:50:10;;;;;;;1.15;0.70;;;16.10;70.10;;;;;;10359483;28;20531;-61
2022/09/30 22:55:13;;;;;;;0.93;0.70;;;16.20;70.70;;;;;;10342649;28;20516;-60
2022/09/30 23:00:14;;;;;;;1.17;0.77;;;16.10;70.10;;;;;;10365869;28;20029;-59
2022/09/30 23:05:15;;;;;;;2.50;1.00;;;16.10;70.10;;;;;;10372053;28;20010;-60
2022/09/30 23:10:16;;;;;;;1.50;0.98;;;16.10;70.10;;;;;;10358331;28;20054;-60
2022/09/30 23:15:16;;;;;;;1.17;1.00;;;16.10;70.10;;;;;;10358362;28;20405;-61
2022/09/30 23:20:17;;;;;;;1.88;1.00;;;16.10;70.00;;;;;;10365820;28;20018;-60
2022/09/30 23:25:18;;;;;;;1.67;0.88;;;16.20;70.00;;;;;;10384379;28;20054;-61
2022/09/30 23:30:18;;;;;;;1.33;0.95;;;16.10;70.00;;;;;;10377122;28;20101;-61
2022/09/30 23:35:19;;;;;;;1.35;0.88;;;16.10;70.00;;;;;;10358522;28;20061;-61
2022/09/30 23:40:20;;;;;;;1.30;0.73;;;16.10;70.00;;;;;;10359070;28;20204;-61
2022/09/30 23:45:20;;;;;;;2.60;0.95;;;16.10;70.00;;;;;;10357251;28;20402;-61
2022/09/30 23:50:22;;;;;;;2.75;0.80;;;16.10;70.00;;;;;;10375437;28;20149;-61
2022/09/30 23:55:28;;;;;;;1.63;0.80;;;16.10;70.00;;;;;;10369806;28;20038;-61
